Dyer, Arkansas
Current Conditions -  °F | °C
As of 12:53 AM on Thursday 27 Nov 2014 (Local Time) from KFSM Reporting Station
Clear Clear  
Wind Chill: 30°   Ceiling: Unl
Heat Index: 37°   Visibility: 10mi
Dew Point: 25°   Wind: 9mph
Humidity: 62%   Direction: 330°NNW
Pressure: 30.4"   Gusts: NA
Location:  35.49°N, 94.14°W
Report Text: KFSM 270653Z AUTO 33008KT 10SM CLR 03/M04 A3040 RMK AO2 SLP296 T00281039
Loading
Personal Weather Stations






























Interactive Weather Map New forecast layout! Learn more

10-Day Weather Forecast

Advertisements
Track Severe Weather on mobile